Time;durP1;ratioP1;P1;durP2;ratioP2;P2;SDS_P1;SDS_P2;PMS_P1;PMS_P2;Temp;Humidity;BMP_temperature;BMP_pressure;BME280_temperature;BME280_humidity;BME280_pressure;Samples;Min_cycle;Max_cycle;Signal;HPM_P1;HPM_P2
2022/01/12 00:00:29;;;;;;;5.40;2.47;;;;;;;13.74;59.35;101460.03;5024771;28;20069;-66
2022/01/12 00:02:56;;;;;;;4.27;2.47;;;;;;;13.72;59.45;101459.47;5020230;28;20512;-65
2022/01/12 00:05:23;;;;;;;7.13;3.20;;;;;;;13.70;59.34;101456.06;5012410;28;20050;-65
2022/01/12 00:07:51;;;;;;;2.13;1.43;;;;;;;13.66;59.57;101463.38;5029367;28;20545;-66
2022/01/12 00:10:19;;;;;;;6.60;3.50;;;;;;;13.59;59.38;101434.75;5017046;28;20124;-62
2022/01/12 00:12:46;;;;;;;4.97;2.77;;;;;;;13.62;59.60;101445.41;5031917;28;20084;-66
2022/01/12 00:15:16;;;;;;;4.30;2.23;;;;;;;13.52;59.86;101434.19;5031070;28;20132;-65
2022/01/12 00:17:44;;;;;;;2.67;1.83;;;;;;;13.56;59.84;101445.69;5026634;28;20133;-67
2022/01/12 00:20:12;;;;;;;5.63;3.40;;;;;;;13.51;59.64;101427.72;5025908;28;20095;-66
2022/01/12 00:22:40;;;;;;;3.93;2.47;;;;;;;13.58;59.75;101449.06;5018967;28;20137;-66
2022/01/12 00:33:12;;;;;;;4.00;2.33;;;;;;;13.68;59.32;101432.25;5030106;28;20136;-74
2022/01/12 00:35:42;;;;;;;;;;;;;;;13.47;60.01;101442.59;5029106;28;20042;-75
2022/01/12 00:38:10;;;;;;;5.90;3.27;;;;;;;13.66;59.58;101440.09;5025956;28;20027;-74
2022/01/12 00:40:49;;;;;;;3.63;2.23;;;;;;;13.67;59.25;101441.75;5033235;28;20073;-74
2022/01/12 00:43:17;;;;;;;3.10;2.10;;;;;;;13.71;59.20;101448.53;5020768;28;20132;-74
2022/01/12 00:45:46;;;;;;;4.17;2.00;;;;;;;13.72;59.37;101439.81;5022544;28;20061;-65
2022/01/12 00:48:14;;;;;;;4.40;2.33;;;;;;;13.75;59.23;101438.41;5025327;28;20149;-65
2022/01/12 00:50:42;;;;;;;5.20;2.37;;;;;;;13.70;59.34;101436.44;5029674;28;20467;-61
2022/01/12 00:53:09;;;;;;;4.17;2.40;;;;;;;13.70;59.21;101442.03;5026313;28;20099;-63
2022/01/12 00:55:37;;;;;;;4.17;2.20;;;;;;;13.73;59.51;101440.66;5029137;28;20133;-63
2022/01/12 00:58:05;;;;;;;3.13;1.40;;;;;;;13.71;59.29;101437.28;5021349;28;20152;-68
2022/01/12 01:00:32;;;;;;;3.40;2.10;;;;;;;13.71;59.52;101442.91;5023669;28;20189;-66
2022/01/12 01:02:59;;;;;;;4.53;2.63;;;;;;;13.71;59.45;101426.06;5026635;28;20041;-67
2022/01/12 01:05:29;;;;;;;1.87;0.80;;;;;;;13.67;59.50;101427.72;5033637;28;20127;-63
2022/01/12 01:07:56;;;;;;;4.85;1.83;;;;;;;13.63;59.60;101430.25;5032677;28;20144;-62
2022/01/12 01:12:59;;;;;;;3.13;1.27;;;;;;;13.54;59.72;101425.47;5027890;28;20056;-62
2022/01/12 01:15:54;;;;;;;2.70;1.50;;;;;;;13.57;59.67;101431.38;5024346;28;20095;-63
2022/01/12 01:26:38;;;;;;;2.53;1.40;;;;;;;13.44;59.52;101415.94;5020151;28;20069;-65
2022/01/12 01:29:05;;;;;;;1.87;1.20;;;;;;;13.51;59.71;101419.31;5026045;28;20473;-66
2022/01/12 01:31:33;;;;;;;3.47;2.30;;;;;;;13.50;59.83;101416.75;5026541;28;20137;-65
2022/01/12 01:34:08;;;;;;;1.23;1.13;;;;;;;13.55;59.37;101430.81;5021190;28;20072;-65
2022/01/12 01:36:38;;;;;;;6.03;2.37;;;;;;;13.61;59.34;101426.91;5014980;28;20054;-65
2022/01/12 01:39:10;;;;;;;2.28;1.33;;;;;;;13.60;59.30;101418.75;5017115;28;20050;-65
2022/01/12 01:41:39;;;;;;;5.53;2.17;;;;;;;13.58;59.17;101407.81;5020645;28;20072;-66
2022/01/12 01:54:59;;;;;;;4.03;2.10;;;;;;;13.56;59.14;101420.44;5025033;28;20445;-64
2022/01/12 01:57:26;;;;;;;2.80;1.87;;;;;;;13.59;59.09;101417.06;5021553;28;20129;-66
2022/01/12 01:59:53;;;;;;;1.87;1.30;;;;;;;13.35;58.95;101400.75;5023059;28;20120;-66
2022/01/12 02:02:20;;;;;;;3.13;1.90;;;;;;;13.57;58.89;101419.28;5022709;28;20440;-64
2022/01/12 02:04:47;;;;;;;2.33;1.40;;;;;;;13.56;58.80;101412.00;5027877;28;20088;-69
2022/01/12 02:07:15;;;;;;;2.60;1.63;;;;;;;13.59;58.81;101417.91;5024900;28;20073;-66
2022/01/12 02:09:41;;;;;;;1.83;1.20;;;;;;;13.60;58.70;101419.56;5028733;28;20125;-68
2022/01/12 02:12:10;;;;;;;1.40;0.50;;;;;;;13.59;58.58;101417.06;5026603;28;20492;-71
2022/01/12 02:14:36;;;;;;;1.40;1.13;;;;;;;13.58;58.62;101421.00;5031570;28;20140;-68
2022/01/12 02:17:10;;;;;;;1.80;1.13;;;;;;;13.52;58.35;101406.13;5023643;28;20188;-68
2022/01/12 02:20:06;;;;;;;0.83;0.77;;;;;;;13.48;58.31;101417.06;5027842;28;20244;-68
2022/01/12 02:36:27;;;;;;;2.33;1.37;;;;;;;13.49;57.93;101415.09;5030520;28;20083;-66
2022/01/12 02:41:49;;;;;;;2.47;1.40;;;;;;;13.50;57.92;101420.44;5004956;28;20405;-76
2022/01/12 02:55:18;;;;;;;3.27;1.00;;;;;;;13.47;58.05;101426.59;5018541;28;20136;-61
2022/01/12 02:57:45;;;;;;;1.67;1.03;;;;;;;13.27;57.84;101382.53;5031167;28;20064;-66
2022/01/12 03:00:15;;;;;;;1.50;1.17;;;;;;;13.45;57.86;101423.22;5024590;28;20133;-68
2022/01/12 03:02:44;;;;;;;;;;;;;;;13.14;58.22;101411.06;5023847;28;20128;-65
2022/01/12 03:07:41;;;;;;;1.77;1.27;;;;;;;13.32;57.78;101406.94;5022678;28;20073;-69
2022/01/12 03:10:11;;;;;;;1.20;1.07;;;;;;;13.39;57.83;101418.72;5029922;28;20073;-86
2022/01/12 03:12:45;;;;;;;1.90;0.90;;;;;;;13.39;57.64;101415.06;5024311;28;20128;-63
2022/01/12 03:15:12;;;;;;;1.90;0.97;;;;;;;13.33;57.81;101403.00;5027764;28;20488;-62
2022/01/12 03:17:38;;;;;;;1.00;0.77;;;;;;;13.26;57.69;101428.53;5022862;28;20040;-68
2022/01/12 03:20:07;;;;;;;1.63;0.90;;;;;;;13.38;57.42;101414.25;5027787;28;20042;-65
2022/01/12 03:22:35;;;;;;;1.90;1.10;;;;;;;13.37;57.46;101409.75;5025905;28;20046;-65
2022/01/12 03:25:02;;;;;;;0.57;0.50;;;;;;;13.34;57.53;101390.69;5023449;28;20087;-65
2022/01/12 03:27:29;;;;;;;1.77;0.93;;;;;;;13.35;57.15;101395.16;5023049;28;20152;-63
2022/01/12 03:29:57;;;;;;;1.17;0.57;;;;;;;13.34;57.19;101399.09;5021990;28;20057;-66
2022/01/12 03:32:38;;;;;;;0.40;0.40;;;;;;;13.40;56.88;101392.38;5024606;28;20073;-62
2022/01/12 03:35:10;;;;;;;0.57;0.57;;;;;;;13.40;56.92;101394.31;5016074;28;20054;-61
2022/01/12 03:40:09;;;;;;;1.48;0.77;;;;;;;13.46;56.54;101380.00;5028992;28;20136;-58
2022/01/12 03:42:36;;;;;;;1.40;0.80;;;;;;;13.36;56.31;101394.03;5015958;28;20042;-56
2022/01/12 03:45:04;;;;;;;0.80;0.60;;;;;;;13.42;56.24;101378.06;5019655;28;20042;-58
2022/01/12 03:47:31;;;;;;;0.60;0.60;;;;;;;13.26;56.27;101375.25;5025097;28;20049;-58
2022/01/12 03:49:57;;;;;;;1.93;0.90;;;;;;;13.43;56.15;101386.16;5021258;28;20140;-58
2022/01/12 03:52:24;;;;;;;1.23;0.60;;;;;;;13.45;56.31;101397.13;5021979;28;20046;-59
2022/01/12 03:54:51;;;;;;;0.90;0.70;;;;;;;13.35;56.03;101400.75;5022690;28;20137;-58
2022/01/12 03:57:18;;;;;;;0.70;0.40;;;;;;;13.45;55.82;101388.72;5028435;28;20089;-58
2022/01/12 03:59:45;;;;;;;1.97;0.90;;;;;;;13.43;55.88;101379.72;5023693;28;20073;-60
2022/01/12 04:02:12;;;;;;;0.70;0.57;;;;;;;13.52;55.65;101390.13;5021340;28;20077;-60
2022/01/12 04:05:03;;;;;;;1.00;0.70;;;;;;;13.57;55.51;101394.03;5023087;28;20171;-61
2022/01/12 04:10:12;;;;;;;0.60;0.53;;;;;;;13.50;56.11;101389.56;5020227;28;20049;-63
2022/01/12 04:12:39;;;;;;;2.33;1.20;;;;;;;13.48;56.23;101393.78;5029934;28;20049;-61
2022/01/12 04:15:07;;;;;;;0.90;0.70;;;;;;;13.49;55.75;101390.66;5025770;28;20070;-59
2022/01/12 04:17:33;;;;;;;0.43;0.43;;;;;;;13.47;55.66;101387.31;5023233;28;20161;-56
2022/01/12 04:20:02;;;;;;;1.10;0.87;;;;;;;13.43;55.74;101382.53;5024818;28;20050;-57
2022/01/12 04:25:15;;;;;;;5.17;0.90;;;;;;;13.38;55.59;101382.53;5024293;28;20578;-63
2022/01/12 04:27:42;;;;;;;1.03;0.70;;;;;;;13.40;55.40;101378.34;5024772;28;20132;-62
2022/01/12 04:30:09;;;;;;;1.10;0.50;;;;;;;13.41;55.60;101388.44;5026240;28;20121;-62
2022/01/12 04:32:41;;;;;;;1.37;0.80;;;;;;;13.37;55.70;101398.53;5017799;28;20130;-67
2022/01/12 04:35:10;;;;;;;1.50;1.00;;;;;;;13.35;55.62;101397.97;5025135;28;20069;-65
2022/01/12 04:37:37;;;;;;;0.93;0.60;;;;;;;13.31;55.92;101399.66;5013745;28;20042;-70
2022/01/12 04:40:05;;;;;;;2.87;0.70;;;;;;;13.28;56.06;101389.81;5018979;28;20092;-69
2022/01/12 04:42:34;;;;;;;1.80;1.27;;;;;;;13.23;56.30;101397.34;5016551;28;20133;-68
2022/01/12 04:45:17;;;;;;;1.73;0.90;;;;;;;12.96;56.36;101376.00;5021967;28;20069;-73
2022/01/12 04:50:13;;;;;;;1.17;0.68;;;;;;;12.98;56.79;101412.16;5024426;28;20136;-72
2022/01/12 04:52:41;;;;;;;1.97;1.00;;;;;;;12.96;56.58;101412.44;5024198;28;20107;-73
2022/01/12 04:55:08;;;;;;;1.00;0.57;;;;;;;12.95;56.64;101416.34;5023309;28;20169;-74
2022/01/12 04:57:36;;;;;;;2.13;1.20;;;;;;;12.86;56.79;101408.75;5027892;28;20505;-76
2022/01/12 05:00:16;;;;;;;1.87;0.97;;;;;;;12.86;56.93;101420.81;5029082;28;20108;-75
2022/01/12 05:08:36;;;;;;;2.70;0.87;;;;;;;12.81;57.06;101417.97;5029450;28;20492;-80
2022/01/12 05:13:54;;;;;;;2.63;1.40;;;;;;;12.54;57.68;101418.13;5028584;28;20096;-62
2022/01/12 05:16:22;;;;;;;1.17;0.80;;;;;;;12.59;57.76;101434.16;5026046;28;20571;-62
2022/01/12 05:18:51;;;;;;;1.10;0.83;;;;;;;12.65;57.60;101433.03;5026032;28;21697;-61
2022/01/12 05:21:19;;;;;;;3.73;1.53;;;;;;;12.70;57.72;101435.88;5027231;28;20474;-62
2022/01/12 05:23:47;;;;;;;2.30;1.10;;;;;;;12.68;57.84;101436.13;5026729;28;20054;-62
2022/01/12 05:26:14;;;;;;;3.90;1.60;;;;;;;12.66;57.75;101435.59;5022379;28;20442;-62
2022/01/12 05:28:41;;;;;;;2.23;1.33;;;;;;;12.51;57.83;101427.09;5016138;28;20172;-62
2022/01/12 05:31:11;;;;;;;2.07;1.00;;;;;;;12.53;57.99;101442.50;5015819;28;20053;-62
2022/01/12 05:33:41;;;;;;;2.83;1.30;;;;;;;12.45;58.25;101445.84;5017993;28;20050;-62
2022/01/12 05:36:08;;;;;;;5.43;2.77;;;;;;;12.38;58.40;101442.44;5018140;28;20497;-61
2022/01/12 05:38:35;;;;;;;3.37;1.87;;;;;;;12.40;58.45;101440.19;5017852;28;20550;-61
2022/01/12 05:41:05;;;;;;;3.43;1.70;;;;;;;12.39;58.59;101438.53;5017810;28;20041;-62
2022/01/12 05:43:35;;;;;;;2.03;1.17;;;;;;;12.33;58.52;101425.59;5019198;28;20870;-60
2022/01/12 05:46:13;;;;;;;1.60;1.08;;;;;;;12.36;58.57;101439.06;5018185;28;20072;-67
2022/01/12 05:51:29;;;;;;;3.03;0.90;;;;;;;12.31;58.75;101453.03;5025966;28;20050;-58
2022/01/12 05:53:56;;;;;;;1.67;1.03;;;;;;;12.31;58.71;101441.84;5019467;28;20073;-58
2022/01/12 05:56:23;;;;;;;1.87;1.00;;;;;;;12.29;58.56;101432.84;5030339;28;20136;-59
2022/01/12 05:58:50;;;;;;;1.07;0.83;;;;;;;12.26;58.59;101439.84;5022449;28;20061;-68
2022/01/12 06:01:19;;;;;;;2.83;1.07;;;;;;;12.36;58.61;101444.66;5025091;28;20046;-58
2022/01/12 06:03:46;;;;;;;3.07;1.63;;;;;;;12.30;58.62;101437.34;5023141;28;20046;-59
2022/01/12 06:06:13;;;;;;;2.23;1.10;;;;;;;12.33;58.59;101446.03;5016581;28;20153;-66
2022/01/12 06:08:40;;;;;;;1.70;0.67;;;;;;;12.21;58.69;101473.41;5023928;28;20049;-61
2022/01/12 06:11:07;;;;;;;19.43;7.13;;;;;;;12.32;58.67;101463.13;5027483;28;20482;-60
2022/01/12 06:13:34;;;;;;;3.50;1.73;;;;;;;12.35;58.68;101465.38;5028412;28;20124;-61
2022/01/12 06:16:02;;;;;;;0.97;0.57;;;;;;;12.26;58.58;101461.41;5027254;28;20073;-70
2022/01/12 06:18:29;;;;;;;1.63;0.90;;;;;;;12.38;58.51;101476.06;5028153;28;20069;-62
2022/01/12 06:20:56;;;;;;;1.83;0.90;;;;;;;12.39;58.48;101469.34;5021331;28;20049;-61
2022/01/12 06:23:23;;;;;;;4.43;0.80;;;;;;;12.40;58.28;101473.81;5023973;28;20506;-62
2022/01/12 06:25:50;;;;;;;0.60;0.40;;;;;;;12.31;58.36;101467.06;5013214;28;20065;-61
2022/01/12 06:31:11;;;;;;;0.63;0.53;;;;;;;12.29;58.28;101458.06;5022313;28;20069;-60
2022/01/12 06:33:40;;;;;;;0.30;0.30;;;;;;;12.38;58.33;101481.66;5026306;28;20387;-58
2022/01/12 06:36:08;;;;;;;0.52;0.52;;;;;;;12.38;58.10;101494.81;5018646;28;20049;-58
2022/01/12 06:38:35;;;;;;;2.87;0.80;;;;;;;12.32;57.85;101466.75;5017704;28;20552;-58
2022/01/12 06:41:03;;;;;;;0.40;0.40;;;;;;;12.40;57.91;101471.00;5027481;28;20041;-58
2022/01/12 06:43:30;;;;;;;1.57;0.93;;;;;;;12.43;57.91;101490.09;5026499;28;20071;-59
2022/01/12 06:45:58;;;;;;;0.57;0.40;;;;;;;12.43;57.69;101492.88;5021757;28;20099;-58
2022/01/12 06:48:25;;;;;;;0.40;0.40;;;;;;;12.41;57.79;101509.13;5018072;28;20092;-58
2022/01/12 06:50:52;;;;;;;1.13;0.67;;;;;;;12.40;57.91;101496.22;5019847;28;20045;-58
2022/01/12 06:53:18;;;;;;;1.43;0.90;;;;;;;12.40;57.58;101496.22;5022626;28;20148;-59
2022/01/12 06:55:45;;;;;;;3.13;1.00;;;;;;;12.29;58.11;101500.06;5017697;28;20133;-62
2022/01/12 06:58:14;;;;;;;0.70;0.60;;;;;;;12.24;57.90;101481.28;5026316;28;20082;-57
2022/01/12 07:00:41;;;;;;;2.67;0.70;;;;;;;12.37;57.98;101507.13;5020556;28;20558;-55
2022/01/12 07:03:08;;;;;;;3.03;1.30;;;;;;;12.34;57.65;101508.50;5026896;28;20057;-56
2022/01/12 07:05:35;;;;;;;1.10;0.60;;;;;;;12.33;57.90;101502.06;5026433;28;20049;-57
2022/01/12 07:08:02;;;;;;;0.50;0.50;;;;;;;12.32;57.67;101494.78;5022562;28;20068;-57
2022/01/12 07:10:29;;;;;;;1.50;0.80;;;;;;;12.38;57.60;101503.22;5019350;28;20046;-56
2022/01/12 07:12:56;;;;;;;0.60;0.60;;;;;;;12.36;57.82;101499.84;5019890;28;20088;-57
2022/01/12 07:15:23;;;;;;;1.13;1.03;;;;;;;12.20;57.89;101519.31;5028907;28;20554;-57
2022/01/12 07:17:50;;;;;;;2.07;0.90;;;;;;;12.23;57.97;101490.78;5024777;28;20073;-58
2022/01/12 07:20:17;;;;;;;2.10;0.70;;;;;;;12.26;57.90;101506.22;5022961;28;20136;-57
2022/01/12 07:22:44;;;;;;;0.50;0.50;;;;;;;12.11;58.19;101515.34;5024472;28;20077;-56
2022/01/12 07:25:11;;;;;;;0.70;0.60;;;;;;;12.18;58.32;101531.94;5019339;28;20053;-55
2022/01/12 07:27:40;;;;;;;0.57;0.40;;;;;;;12.17;58.31;101516.22;5020922;28;20091;-57
2022/01/12 07:30:07;;;;;;;0.67;0.50;;;;;;;12.24;58.27;101520.50;5020579;28;20052;-57
2022/01/12 07:32:34;;;;;;;0.73;0.70;;;;;;;12.07;58.49;101509.44;5024814;28;20073;-58
2022/01/12 07:35:02;;;;;;;0.77;0.60;;;;;;;12.12;58.43;101508.63;5018746;28;20067;-58
2022/01/12 07:37:29;;;;;;;0.50;0.47;;;;;;;12.18;58.41;101527.16;5020349;28;20096;-57
2022/01/12 07:39:56;;;;;;;0.10;0.10;;;;;;;12.13;58.26;101517.88;5009084;28;20623;-60
2022/01/12 07:42:24;;;;;;;1.00;0.63;;;;;;;12.09;58.25;101501.59;5018258;28;20128;-53
2022/01/12 07:44:59;;;;;;;0.40;0.40;;;;;;;12.17;58.47;101522.69;5017344;28;20051;-57
2022/01/12 07:47:27;;;;;;;0.67;0.60;;;;;;;12.09;58.59;101518.41;5021186;28;20478;-56
2022/01/12 07:49:55;;;;;;;2.77;1.47;;;;;;;12.14;58.17;101508.38;5025264;28;20576;-57
2022/01/12 07:52:22;;;;;;;0.73;0.67;;;;;;;12.07;58.33;101501.03;5022363;28;20128;-56
2022/01/12 07:54:49;;;;;;;1.03;0.67;;;;;;;11.92;58.62;101511.25;5022779;28;20084;-57
2022/01/12 07:57:17;;;;;;;1.53;0.97;;;;;;;11.92;58.59;101506.50;5021809;28;20113;-56
2022/01/12 07:59:45;;;;;;;0.60;0.60;;;;;;;11.95;58.35;101531.16;5051959;28;20190;-57
2022/01/12 08:02:12;;;;;;;0.93;0.57;;;;;;;11.97;58.51;101531.75;5024405;28;20056;-58
2022/01/12 08:04:39;;;;;;;0.50;0.40;;;;;;;11.95;58.57;101530.31;5024738;28;20533;-56
2022/01/12 08:07:09;;;;;;;0.40;0.40;;;;;;;11.82;58.47;101525.97;5030511;28;20072;-58
2022/01/12 08:09:40;;;;;;;;;;;;;;;11.72;58.79;101535.09;5027752;28;20137;-57
2022/01/12 08:12:09;;;;;;;0.57;0.40;;;;;;;11.84;58.66;101532.19;5051234;28;19947;-57
2022/01/12 08:14:36;;;;;;;1.03;0.73;;;;;;;11.94;58.35;101526.69;5036965;28;20515;-57
2022/01/12 08:17:03;;;;;;;0.57;0.57;;;;;;;11.97;58.49;101534.53;5025097;28;20054;-58
2022/01/12 08:19:34;;;;;;;2.40;1.13;;;;;;;12.02;58.37;101531.78;5023846;28;20041;-57
2022/01/12 08:22:02;;;;;;;1.07;0.80;;;;;;;12.25;57.93;101529.72;5023321;28;20041;-57
2022/01/12 08:24:29;;;;;;;1.43;0.60;;;;;;;12.46;57.48;101562.38;5019753;28;20069;-57
2022/01/12 08:27:07;;;;;;;0.60;0.60;;;;;;;12.59;57.00;101540.63;5024752;28;20049;-59
2022/01/12 08:29:34;;;;;;;0.30;0.30;;;;;;;12.67;56.64;101556.94;5021721;28;20067;-58
2022/01/12 08:32:01;;;;;;;0.67;0.60;;;;;;;12.85;56.43;101545.25;5017442;28;20140;-64
2022/01/12 08:34:28;;;;;;;1.67;0.77;;;;;;;12.83;55.82;101553.09;5019899;28;20087;-65
2022/01/12 08:36:55;;;;;;;2.20;0.80;;;;;;;13.04;55.54;101556.88;5021588;28;20081;-65
2022/01/12 08:39:22;;;;;;;1.50;0.90;;;;;;;13.26;55.57;101554.78;5020570;28;20128;-65
2022/01/12 08:41:49;;;;;;;1.23;0.90;;;;;;;13.57;55.48;101556.81;5017259;28;20069;-65
2022/01/12 08:44:32;;;;;;;0.60;0.60;;;;;;;13.57;54.68;101556.81;5016897;28;20137;-64
2022/01/12 08:46:59;;;;;;;0.30;0.30;;;;;;;13.74;54.60;101557.41;5031393;28;20069;-64
2022/01/12 08:49:26;;;;;;;1.67;0.90;;;;;;;13.77;53.74;101564.44;5022263;28;20115;-64
2022/01/12 08:51:53;;;;;;;3.73;1.30;;;;;;;13.87;53.97;101556.03;5024201;28;20080;-63
2022/01/12 08:54:20;;;;;;;1.27;0.90;;;;;;;13.94;53.45;101554.63;5024763;28;20075;-64
2022/01/12 08:56:47;;;;;;;0.80;0.80;;;;;;;14.01;52.91;101551.56;5025312;28;20125;-63
2022/01/12 08:59:15;;;;;;;2.00;1.00;;;;;;;14.17;52.77;101581.34;5033677;28;20076;-64
2022/01/12 09:01:41;;;;;;;1.53;1.10;;;;;;;14.27;52.90;101558.03;5030934;28;20072;-63
2022/01/12 09:04:10;;;;;;;0.93;0.83;;;;;;;14.35;51.81;101568.72;5032796;28;20128;-63
2022/01/12 09:06:37;;;;;;;0.77;0.77;;;;;;;14.52;51.78;101565.66;5025142;28;20098;-63
2022/01/12 09:09:04;;;;;;;1.03;0.77;;;;;;;14.84;51.51;101562.53;5026166;28;20465;-63
2022/01/12 09:11:32;;;;;;;1.97;1.33;;;;;;;15.19;50.72;101557.06;5030452;28;20128;-63
2022/01/12 09:13:59;;;;;;;0.63;0.60;;;;;;;15.58;51.29;101571.22;5032395;28;20169;-63
2022/01/12 09:16:26;;;;;;;3.60;1.00;;;;;;;15.93;49.63;101569.38;5030219;28;20124;-63
2022/01/12 09:18:56;;;;;;;1.75;1.05;;;;;;;16.03;48.45;101569.28;5030650;28;20470;-63
2022/01/12 09:21:23;;;;;;;0.90;0.90;;;;;;;16.15;47.83;101580.22;5026076;28;20076;-63
2022/01/12 09:23:50;;;;;;;1.58;1.15;;;;;;;16.23;48.11;101573.94;5026012;28;20136;-63
2022/01/12 09:26:18;;;;;;;1.40;0.80;;;;;;;16.58;47.65;101589.69;5022060;28;20128;-63
2022/01/12 09:28:46;;;;;;;1.10;0.88;;;;;;;16.66;46.74;101574.97;5036063;28;20069;-63
2022/01/12 09:31:12;;;;;;;2.80;1.02;;;;;;;16.84;46.59;101581.88;5026307;28;20103;-63
2022/01/12 09:33:40;;;;;;;1.65;0.80;;;;;;;17.22;46.66;101580.03;5028088;28;20149;-62
2022/01/12 09:36:07;;;;;;;1.00;0.88;;;;;;;17.50;45.51;101578.31;5030435;28;20137;-62
2022/01/12 09:38:34;;;;;;;2.35;1.33;;;;;;;17.93;45.23;101585.94;5029883;28;20133;-64
2022/01/12 09:41:02;;;;;;;3.10;1.33;;;;;;;18.18;43.33;101582.69;5030486;28;20076;-63
2022/01/12 09:43:32;;;;;;;2.25;1.35;;;;;;;18.65;43.73;101569.47;5023935;28;20183;-63
2022/01/12 09:46:00;;;;;;;2.30;1.47;;;;;;;19.07;42.25;101570.38;5021467;28;20056;-63
2022/01/12 09:48:33;;;;;;;1.00;0.95;;;;;;;18.86;42.02;101588.94;5016182;28;20711;-63
2022/01/12 09:51:04;;;;;;;2.75;1.20;;;;;;;19.09;42.26;101575.75;5016803;28;20045;-63
2022/01/12 09:53:35;;;;;;;3.17;1.60;;;;;;;18.94;41.64;101545.78;5029297;28;20132;-63
2022/01/12 09:56:09;;;;;;;1.48;0.90;;;;;;;19.29;40.71;101583.84;5019679;28;20589;-63
2022/01/12 09:58:39;;;;;;;3.85;1.23;;;;;;;19.21;40.85;101583.72;5014436;28;20475;-63
2022/01/12 10:01:06;;;;;;;2.45;1.60;;;;;;;19.45;40.72;101587.19;5029672;28;20073;-64
2022/01/12 10:03:33;;;;;;;3.00;1.80;;;;;;;19.84;40.20;101582.97;5019487;28;20092;-64
2022/01/12 10:06:12;;;;;;;1.60;1.40;;;;;;;19.80;39.13;101574.28;5023310;28;20132;-64
2022/01/12 10:08:39;;;;;;;1.70;1.27;;;;;;;20.02;39.30;101590.47;5026889;28;20073;-63
2022/01/12 10:11:17;;;;;;;3.28;1.58;;;;;;;20.44;39.56;101579.81;5033620;28;20140;-64
2022/01/12 10:13:44;;;;;;;1.48;1.25;;;;;;;20.91;38.10;101576.63;5024102;28;20064;-63
2022/01/12 10:16:17;;;;;;;1.25;1.00;;;;;;;20.24;37.47;101598.19;5026336;28;20077;-64
2022/01/12 10:18:49;;;;;;;1.17;1.08;;;;;;;19.32;38.11;101542.72;5033802;28;20133;-63
2022/01/12 10:21:29;;;;;;;2.42;1.58;;;;;;;19.24;38.88;101577.44;5027351;28;20080;-63
2022/01/12 10:23:58;;;;;;;3.55;2.10;;;;;;;19.49;38.81;101593.09;5021026;28;20075;-63
2022/01/12 10:26:38;;;;;;;2.10;1.45;;;;;;;19.25;38.52;101598.94;5029537;28;20144;-63
2022/01/12 10:29:09;;;;;;;1.27;0.73;;;;;;;19.31;39.45;101577.84;5025231;28;20469;-63
2022/01/12 10:31:51;;;;;;;4.85;1.77;;;;;;;19.74;38.57;101600.22;5016478;28;20140;-63
2022/01/12 10:34:24;;;;;;;1.20;1.05;;;;;;;20.15;38.33;101594.44;5020432;28;20133;-63
2022/01/12 10:36:53;;;;;;;2.47;1.55;;;;;;;20.39;37.34;101594.13;5029175;28;20077;-63
2022/01/12 10:39:23;;;;;;;1.93;1.40;;;;;;;20.68;36.89;101595.69;5029810;28;20607;-63
2022/01/12 10:41:55;;;;;;;1.25;1.15;;;;;;;20.68;36.40;101607.06;5013754;28;20337;-63
2022/01/12 10:44:35;;;;;;;1.63;1.13;;;;;;;20.51;36.58;101597.28;5027844;28;20080;-64
2022/01/12 10:47:16;;;;;;;2.83;1.55;;;;;;;20.32;36.42;101616.44;5027378;28;20124;-64
2022/01/12 10:49:55;;;;;;;1.85;1.63;;;;;;;20.49;35.95;101610.91;5022394;28;20482;-64
2022/01/12 10:52:24;;;;;;;1.98;1.20;;;;;;;20.10;35.90;101598.25;5032618;28;20136;-64
2022/01/12 10:54:56;;;;;;;2.88;1.52;;;;;;;20.11;36.55;101608.41;5012461;28;20147;-64
2022/01/12 10:57:30;;;;;;;2.00;1.20;;;;;;;21.10;36.39;101633.22;5014245;28;20049;-64
2022/01/12 11:00:08;;;;;;;1.75;1.40;;;;;;;22.05;34.78;101599.44;5016844;28;20413;-62
2022/01/12 11:02:38;;;;;;;1.48;0.80;;;;;;;21.73;34.19;101621.44;5024464;28;20077;-63
2022/01/12 11:05:07;;;;;;;2.35;1.08;;;;;;;20.94;34.46;101610.06;5015020;28;20144;-63
2022/01/12 11:07:35;;;;;;;2.47;1.30;;;;;;;20.85;34.93;101631.88;5028161;28;20077;-63
2022/01/12 11:10:05;;;;;;;2.28;1.50;;;;;;;20.75;35.03;101607.44;5015754;28;20132;-63
2022/01/12 11:12:34;;;;;;;1.58;1.30;;;;;;;20.70;34.17;101613.25;5028005;28;20080;-64
2022/01/12 11:15:04;;;;;;;1.00;0.90;;;;;;;21.06;34.66;101607.47;5024898;28;20137;-63
2022/01/12 11:17:30;;;;;;;2.28;1.23;;;;;;;21.16;33.94;101612.00;5028957;28;20128;-63
2022/01/12 11:20:08;;;;;;;1.35;1.00;;;;;;;20.95;33.66;101600.38;5021024;28;20084;-63
2022/01/12 11:23:03;;;;;;;1.60;1.38;;;;;;;21.49;33.22;101616.19;5014793;28;20149;-64
2022/01/12 11:25:41;;;;;;;0.80;0.80;;;;;;;21.08;32.29;101585.25;5028891;28;20045;-65
2022/01/12 11:28:13;;;;;;;1.83;1.17;;;;;;;21.13;33.16;101587.97;5019177;28;20086;-64
2022/01/12 11:30:54;;;;;;;1.05;0.95;;;;;;;21.13;32.08;101585.13;5026753;28;20164;-64
2022/01/12 11:33:44;;;;;;;0.88;0.85;;;;;;;20.96;32.94;101585.88;5027041;28;20049;-63
2022/01/12 11:36:17;;;;;;;2.95;1.30;;;;;;;21.24;32.80;101574.31;5031686;28;20046;-64
2022/01/12 11:38:47;;;;;;;1.20;0.93;;;;;;;21.57;32.12;101582.44;5025827;28;20573;-65
2022/01/12 11:41:26;;;;;;;1.67;1.23;;;;;;;20.98;32.11;101555.13;5042667;28;20450;-64
2022/01/12 11:43:59;;;;;;;1.25;1.10;;;;;;;20.96;32.48;101563.16;5025256;28;20124;-64
2022/01/12 11:46:28;;;;;;;1.17;0.98;;;;;;;21.32;32.92;101559.28;5023982;28;20500;-64
2022/01/12 11:48:59;;;;;;;3.35;1.83;;;;;;;21.61;32.55;101550.22;5023758;28;20121;-65
2022/01/12 11:51:43;;;;;;;1.88;1.42;;;;;;;22.26;31.83;101537.06;5023982;28;20148;-66
2022/01/12 11:54:16;;;;;;;6.30;2.50;;;;;;;22.91;31.60;101547.28;5022109;28;20129;-68
2022/01/12 11:56:52;;;;;;;2.33;1.63;;;;;;;23.14;30.75;101553.56;5026841;28;20079;-64
2022/01/12 11:59:20;;;;;;;2.13;1.10;;;;;;;23.44;30.74;101541.38;5028043;28;20133;-64
2022/01/12 12:01:49;;;;;;;3.95;2.30;;;;;;;23.55;30.42;101531.25;5025247;28;20053;-64
2022/01/12 12:04:30;;;;;;;3.25;2.05;;;;;;;24.09;29.50;101531.38;5023389;28;20132;-63
2022/01/12 12:07:03;;;;;;;3.80;2.35;;;;;;;24.80;28.76;101525.47;5023614;28;20049;-63
2022/01/12 12:09:53;;;;;;;2.00;1.52;;;;;;;24.13;28.30;101535.19;5029008;28;20124;-63
2022/01/12 12:12:27;;;;;;;6.07;2.83;;;;;;;24.40;28.79;101507.25;5024866;28;20049;-64
2022/01/12 12:14:58;;;;;;;2.83;2.03;;;;;;;25.17;28.18;101499.81;5023060;28;20104;-64
2022/01/12 12:17:28;;;;;;;4.07;1.92;;;;;;;24.36;27.69;101499.38;5019237;28;20132;-64
2022/01/12 12:19:57;;;;;;;2.33;1.65;;;;;;;23.78;28.60;101520.38;5025804;28;20156;-64
2022/01/12 12:22:29;;;;;;;4.97;2.55;;;;;;;23.49;28.52;101495.59;5026262;28;20088;-65
2022/01/12 12:25:06;;;;;;;5.20;1.95;;;;;;;22.92;28.68;101494.00;5026737;28;20140;-64
2022/01/12 12:27:35;;;;;;;3.47;1.58;;;;;;;22.65;29.32;101498.13;5028360;28;20151;-64
2022/01/12 12:30:07;;;;;;;2.03;1.55;;;;;;;22.24;29.52;101482.47;5015281;28;20810;-63
2022/01/12 12:32:52;;;;;;;1.80;1.42;;;;;;;21.61;29.91;101445.03;5024211;28;20506;-64
2022/01/12 12:35:28;;;;;;;3.17;1.70;;;;;;;22.07;30.33;101488.16;5030062;28;20077;-63
2022/01/12 12:37:58;;;;;;;4.13;1.80;;;;;;;22.56;30.25;101474.53;5030615;28;20081;-63
2022/01/12 12:40:31;;;;;;;4.70;2.53;;;;;;;22.12;29.88;101477.47;5032470;28;20052;-63
2022/01/12 12:43:17;;;;;;;4.28;2.58;;;;;;;21.76;30.28;101470.09;5033531;28;20077;-63
2022/01/12 12:45:52;;;;;;;4.93;3.22;;;;;;;21.94;30.03;101453.88;5026031;28;20136;-63
2022/01/12 12:48:21;;;;;;;4.20;3.08;;;;;;;22.35;30.08;101466.72;5027701;28;20076;-63
2022/01/12 12:51:02;;;;;;;5.32;3.60;;;;;;;22.31;29.60;101462.88;5034690;28;20087;-64
2022/01/12 12:53:30;;;;;;;;;;;;;;;22.29;29.76;101442.50;5031262;28;20146;-64
2022/01/12 12:55:57;;;;;;;5.38;2.78;;;;;;;22.54;29.05;101466.34;5035512;28;20013;-65
2022/01/12 12:58:30;;;;;;;2.40;1.70;;;;;;;22.12;29.63;101454.72;5018333;28;20057;-65
2022/01/12 13:01:12;;;;;;;4.93;2.63;;;;;;;22.18;29.70;101432.63;5023696;28;20062;-67
2022/01/12 13:03:50;;;;;;;6.78;3.25;;;;;;;22.46;28.67;101433.03;5031821;28;20045;-64